Latest Weather Observations for Narrandera Airport

IDN60801

Issued at 10:05 pm EST Saturday 30 August 2014 (issued every 30 minutes, with the page automatically refreshed every 10 minutes)

About weather observations | Map of weather stations | Latest weather observations for NSW | Other Formats
Station Details ID: 074148 Name: NARRANDERA AIRPORT Lat: -34.70 Lon: 146.51 Height: 145.0 m
Data from the previous 72 hours. | See also: Recent months for locations in New South Wales
Date/Time
EST
Temp
°C
App
Temp
°C
Dew
Point
Rel
Hum
%
Delta-T
°C
Wind Press
QNH
hPa
Press
MSL
hPa
Rain
since 9 am
mm
Dir
 
Spd
km/h
Gust
km/h
Spd
kts
Gust
kts
30/10:00pm 7.3 3.6 4.3 81 1.3 ESE 13 15 7 8 1022.7 1022.9 0.0
30/09:30pm 6.1 4.6 2.9 80 1.3 SE 0 2 0 1 1022.9 - 0.0
30/09:00pm 6.9 5.4 3.2 77 1.6 CALM 0 0 0 0 1023.0 1023.2 0.0
30/08:30pm 7.6 6.2 3.3 74 1.8 CALM 0 6 0 3 1023.0 - 0.0
30/08:00pm 8.7 7.4 3.9 72 2.1 CALM 0 0 0 0 1023.0 1023.2 0.0
30/07:30pm 9.7 8.5 4.5 70 2.3 CALM 0 0 0 0 1023.0 - 0.0
30/07:00pm 10.5 9.1 3.5 62 3.1 CALM 0 0 0 0 1022.8 1023.0 0.0
30/06:30pm 12.5 11.2 4.0 56 3.9 CALM 0 0 0 0 1022.7 - 0.0
30/06:00pm 14.8 12.3 3.6 47 5.1 E 6 9 3 5 1022.5 1022.7 0.0
30/05:30pm 18.0 15.3 3.9 39 6.7 NE 7 7 4 4 1022.5 - 0.0
30/05:00pm 19.2 16.9 3.0 34 7.6 NNE 4 9 2 5 1022.5 1022.7 0.0
30/04:30pm 19.9 17.5 2.3 31 8.2 NNE 4 9 2 5 1022.4 - 0.0
30/04:00pm 19.8 17.7 1.7 30 8.3 ESE 2 9 1 5 1022.5 1022.7 0.0
30/03:30pm 20.5 17.8 3.7 33 8.1 N 7 9 4 5 1022.6 - 0.0
30/03:00pm 20.3 17.1 3.1 32 8.1 NNE 9 13 5 7 1022.8 1023.0 0.0
30/02:30pm 19.8 16.8 2.2 31 8.2 NNE 7 19 4 10 1022.9 - 0.0
30/02:00pm 20.4 17.8 4.0 34 7.9 NE 7 17 4 9 1023.3 1023.5 0.0
30/01:30pm 19.7 16.9 3.0 33 7.9 NE 7 15 4 8 1023.8 - 0.0
30/01:00pm 18.7 14.7 2.9 35 7.3 NE 13 17 7 9 1024.2 1024.4 0.0
30/12:30pm 18.5 15.1 3.9 38 6.9 NNE 11 22 6 12 1024.8 - 0.0
30/12:00pm 17.7 14.5 5.0 43 6.1 N 11 19 6 10 1025.4 1025.6 0.0
30/11:30am 17.5 14.0 7.3 51 5.2 ENE 15 24 8 13 1026.1 - 0.0
30/11:00am 16.1 11.9 5.7 50 5.0 ENE 17 22 9 12 1026.6 1026.9 0.0
30/10:30am 15.6 12.4 6.9 56 4.3 ENE 13 20 7 11 1026.9 - 0.0
30/10:00am 15.0 11.4 6.8 58 4.0 ENE 15 17 8 9 1027.1 1027.3 0.0
30/09:30am 13.5 9.8 6.4 62 3.4 ENE 15 20 8 11 1027.2 - 0.0
30/09:00am 12.4 9.2 6.9 69 2.6 ENE 13 17 7 9 1026.9 1027.2 0.0
30/08:30am 10.8 7.1 6.4 74 2.1 ENE 15 24 8 13 1026.9 - 0.0
30/08:00am 9.2 7.3 7.5 89 0.8 E 7 11 4 6 1026.7 1027.0 0.0
30/07:30am 6.5 3.9 6.1 97 0.2 ESE 9 11 5 6 1026.4 - 0.0
30/07:00am 5.4 4.3 5.3 99 0.0 CALM 0 6 0 3 1026.3 1026.6 0.0
30/06:30am 4.3 1.3 3.9 97 0.2 ESE 9 11 5 6 1026.0 - 0.0
30/06:00am 4.7 2.4 4.6 99 0.0 SE 6 7 3 4 1025.8 1026.0 0.0
30/05:30am 4.2 1.7 3.9 98 0.1 SE 6 9 3 5 1025.5 - 0.0
30/05:00am 4.7 1.7 4.3 97 0.2 ESE 9 11 5 6 1025.6 1025.8 0.0
30/04:30am 4.7 2.2 3.8 94 0.4 SE 6 9 3 5 1025.6 - 0.0
30/04:00am 6.1 3.1 5.8 98 0.1 ESE 11 13 6 7 1025.6 1025.8 0.0
30/03:30am 5.9 3.2 5.6 98 0.1 ESE 9 11 5 6 1025.4 - 0.0
30/03:00am 5.6 2.9 5.5 99 0.0 ESE 9 11 5 6 1025.3 1025.5 0.0
30/02:30am 4.8 2.2 4.4 97 0.2 ESE 7 9 4 5 1025.3 - 0.0
30/02:00am 4.0 1.2 3.1 94 0.4 ESE 7 7 4 4 1025.3 1025.5 0.0
30/01:30am 4.4 2.2 3.1 91 0.5 SE 4 9 2 5 1025.4 - 0.0
30/01:00am 6.7 5.4 6.1 96 0.3 SSE 2 7 1 4 1025.5 1025.7 0.0
30/12:30am 5.2 2.5 3.5 89 0.7 SE 7 9 4 5 1025.5 - 0.0
30/12:00am 6.2 3.7 5.0 92 0.5 SE 7 9 4 5 1025.6 1025.8 0.0
 
Date/Time
EST
Temp
°C
App
Temp
°C
Dew
Point
Rel
Hum
%
Delta-T
°C
Wind Press
QNH
hPa
Press
MSL
hPa
Rain
since 9 am
mm
Dir
 
Spd
km/h
Gust
km/h
Spd
kts
Gust
kts
29/11:30pm 5.8 4.4 3.8 87 0.9 CALM 0 0 0 0 1025.6 - 0.0
29/11:00pm 7.2 6.0 4.7 84 1.1 CALM 0 0 0 0 1025.6 1025.8 0.0
29/10:30pm 8.8 8.1 6.9 88 0.9 CALM 0 0 0 0 1025.8 - 0.0
29/10:00pm 8.4 7.6 6.4 87 0.9 CALM 0 0 0 0 1025.9 1026.2 0.0
29/09:30pm 7.7 6.6 5.0 83 1.2 CALM 0 0 0 0 1025.9 - 0.0
29/09:00pm 8.3 6.1 6.1 86 1.0 SE 7 9 4 5 1025.9 1026.2 0.0
29/08:30pm 8.9 8.1 6.3 84 1.2 CALM 0 0 0 0 1025.8 - 0.0
29/08:00pm 9.3 8.4 5.9 79 1.6 CALM 0 0 0 0 1025.8 1026.0 0.0
29/07:30pm 10.2 9.3 6.0 75 2.0 CALM 0 0 0 0 1025.8 - 0.0
29/07:00pm 11.9 11.2 7.0 72 2.4 CALM 0 0 0 0 1025.7 1025.9 0.0
29/06:30pm 12.5 10.6 6.8 68 2.8 S 6 7 3 4 1025.5 - 0.0
29/06:00pm 14.9 14.1 6.7 58 4.0 CALM 0 0 0 0 1025.4 1025.6 0.0
29/05:30pm 17.6 15.2 6.8 49 5.4 SSE 9 11 5 6 1025.1 - 0.0
29/05:00pm 18.9 16.5 7.0 46 6.0 SE 9 13 5 7 1024.9 1025.1 0.0
29/04:30pm 19.6 17.7 6.7 43 6.5 SE 6 11 3 6 1024.9 - 0.0
29/04:00pm 19.7 16.6 5.7 40 6.9 SSE 11 15 6 8 1024.8 1025.0 0.0
29/03:30pm 20.7 18.7 6.3 39 7.3 SSW 6 11 3 6 1025.0 - 0.0
29/03:00pm 20.5 18.3 6.4 40 7.1 SW 7 15 4 8 1025.2 1025.4 0.0
29/02:30pm 19.7 17.5 6.4 42 6.7 SE 7 15 4 8 1025.6 - 0.0
29/02:00pm 20.0 18.1 6.7 42 6.7 N 6 15 3 8 1025.9 1026.2 0.0
29/01:30pm 18.8 16.5 5.6 42 6.5 S 7 13 4 7 1026.3 - 0.0
29/01:00pm 19.4 17.5 6.8 44 6.3 SW 6 13 3 7 1026.7 1027.0 0.0
29/12:30pm 18.1 16.0 5.7 44 6.1 W 6 15 3 8 1027.4 - 0.0
29/12:00pm 18.1 16.1 6.3 46 5.8 WSW 6 13 3 7 1027.8 1028.0 0.0
29/11:30am 17.6 15.7 6.5 48 5.5 W 6 13 3 7 1028.0 - 0.0
29/11:00am 16.8 15.1 5.7 48 5.4 NW 4 7 2 4 1028.3 1028.5 0.0
29/10:30am 15.5 14.2 6.2 54 4.5 SW 2 9 1 5 1028.5 - 0.0
29/10:00am 15.2 14.3 7.7 61 3.7 NNW 2 7 1 4 1028.8 1029.0 0.0
29/09:30am 13.2 12.5 6.8 65 3.1 CALM 0 0 0 0 1029.1 - 0.0
29/09:00am 10.8 10.0 6.7 76 1.9 CALM 0 0 0 0 1029.2 1029.4 0.0
29/08:30am 8.1 7.1 5.6 84 1.1 CALM 0 0 0 0 1029.3 - 0.0
29/08:00am 6.0 4.8 4.6 91 0.6 CALM 0 0 0 0 1029.2 1029.4 0.0
29/07:30am 3.7 2.3 3.6 99 0.0 CALM 0 0 0 0 1029.1 - 0.0
29/07:00am 1.8 0.1 1.7 99 0.0 CALM 0 0 0 0 1028.6 1028.8 0.0
29/06:30am 1.9 -1.1 1.8 99 0.0 SSE 7 9 4 5 1028.2 - 0.0
29/06:00am 1.3 -2.2 1.0 98 0.1 SSE 9 11 5 6 1028.0 1028.2 0.0
29/05:30am 0.9 -2.1 0.5 97 0.1 SSE 6 9 3 5 1027.8 - 0.0
29/05:00am 2.0 0.3 1.7 98 0.1 CALM 0 0 0 0 1027.7 1027.9 0.0
29/04:30am 1.9 -1.2 1.5 97 0.2 SSE 7 7 4 4 1027.6 - 0.0
29/04:00am 2.0 -1.1 1.6 97 0.2 S 7 9 4 5 1027.7 1027.9 0.0
29/03:30am 2.3 0.6 1.9 97 0.2 CALM 0 0 0 0 1027.5 - 0.0
29/03:00am 2.7 1.0 2.1 96 0.2 CALM 0 0 0 0 1027.6 1027.8 0.0
29/02:30am 3.0 1.4 2.6 97 0.2 CALM 0 0 0 0 1027.7 - 0.0
29/02:00am 2.7 1.0 2.0 95 0.3 CALM 0 0 0 0 1027.9 1028.1 0.0
29/01:30am 3.5 2.0 2.8 95 0.3 CALM 0 0 0 0 1028.0 - 0.0
29/01:00am 3.3 1.7 2.3 93 0.4 CALM 0 0 0 0 1028.1 1028.3 0.0
29/12:30am 4.1 2.6 3.2 94 0.4 CALM 0 0 0 0 1028.2 - 0.0
29/12:00am 4.2 2.7 3.0 92 0.5 CALM 0 0 0 0 1028.3 1028.5 0.0
 
Date/Time
EST
Temp
°C
App
Temp
°C
Dew
Point
Rel
Hum
%
Delta-T
°C
Wind Press
QNH
hPa
Press
MSL
hPa
Rain
since 9 am
mm
Dir
 
Spd
km/h
Gust
km/h
Spd
kts
Gust
kts
28/11:30pm 4.7 3.3 3.4 91 0.5 CALM 0 0 0 0 1028.4 - 0.0
28/11:00pm 5.0 3.6 3.5 90 0.6 CALM 0 0 0 0 1028.5 1028.7 0.0
28/10:30pm 5.3 3.9 3.6 89 0.7 CALM 0 0 0 0 1028.6 - 0.0
28/10:00pm 6.0 4.6 3.8 86 0.9 CALM 0 0 0 0 1028.6 1028.8 0.0
28/09:30pm 6.4 5.1 4.1 85 1.0 CALM 0 0 0 0 1028.6 - 0.0
28/09:00pm 6.4 5.1 4.1 85 1.0 CALM 0 0 0 0 1028.6 1028.8 0.0
28/08:30pm 6.9 5.6 4.2 83 1.2 CALM 0 0 0 0 1028.4 - 0.0
28/08:00pm 7.2 4.7 3.8 79 1.5 SSE 6 9 3 5 1028.3 1028.5 0.0
28/07:30pm 8.7 7.4 4.1 73 2.0 CALM 0 0 0 0 1028.0 - 0.0
28/07:00pm 10.0 7.6 4.2 67 2.6 SE 6 7 3 4 1027.8 1028.0 0.0
28/06:30pm 12.7 11.6 4.9 59 3.6 CALM 0 0 0 0 1027.7 - 0.0
28/06:00pm 14.5 12.1 4.5 51 4.6 E 6 7 3 4 1027.5 1027.7 0.0
28/05:30pm 16.9 15.5 3.6 41 6.2 CALM 0 6 0 3 1027.4 - 0.0
28/05:00pm 18.0 16.1 2.7 36 7.0 SE 2 11 1 6 1027.2 1027.4 0.0
28/04:30pm 18.2 14.1 2.5 35 7.2 SE 13 17 7 9 1026.9 - 0.0
28/04:00pm 18.8 15.9 4.6 39 6.8 SSE 9 13 5 7 1026.9 1027.1 0.0
28/03:30pm 19.1 15.7 4.1 37 7.2 SE 11 20 6 11 1026.9 - 0.0
28/03:00pm 19.1 16.6 4.5 38 7.0 SE 7 17 4 9 1027.0 1027.2 0.0
28/02:30pm 19.0 16.6 4.4 38 7.0 SW 6 15 3 8 1027.2 - 0.0
28/02:00pm 18.5 15.3 5.0 41 6.5 SE 11 19 6 10 1027.5 1027.7 0.0
28/01:30pm 18.1 15.2 4.7 41 6.5 SSE 9 15 5 8 1027.5 - 0.0
28/01:00pm 18.0 14.3 4.6 41 6.4 SE 13 22 7 12 1027.9 1028.1 0.0
28/12:30pm 18.3 14.7 5.2 42 6.4 E 13 20 7 11 1028.3 - 0.0
28/12:00pm 17.6 14.0 4.9 43 6.1 ENE 13 20 7 11 1028.8 1029.0 0.0
28/11:30am 16.9 13.2 4.6 44 5.9 ENE 13 20 7 11 1029.2 - 0.0
28/11:00am 16.4 11.6 4.4 45 5.6 ENE 19 22 10 12 1029.4 1029.6 0.0
28/10:30am 15.7 12.4 6.2 53 4.6 E 13 17 7 9 1029.6 - 0.0
28/10:00am 14.0 10.9 5.6 57 4.0 ESE 11 17 6 9 1029.7 1029.9 0.0
28/09:30am 12.7 9.6 5.4 61 3.4 ESE 11 13 6 7 1029.7 - 0.0
28/09:00am 11.7 9.1 6.2 69 2.6 E 9 13 5 7 1029.6 1029.8 0.0
28/08:30am 10.5 9.3 6.6 77 1.8 E 2 7 1 4 1029.5 - 0.0
28/08:00am 7.1 6.1 5.6 90 0.7 CALM 0 2 0 1 1029.4 1029.6 0.0
28/07:30am 5.0 3.2 3.7 91 0.5 SE 2 7 1 4 1029.1 - 0.0
28/07:00am 4.1 2.4 2.0 86 0.8 CALM 0 6 0 3 1028.7 1028.9 0.0
28/06:30am 6.0 4.6 3.8 86 0.9 CALM 0 6 0 3 1028.5 - 0.0
28/06:00am 4.8 1.9 2.8 87 0.8 SE 7 9 4 5 1028.1 1028.3 0.0
28/05:30am 5.2 2.4 3.2 87 0.8 SSE 7 9 4 5 1027.8 - 0.0
28/05:00am 5.6 2.9 3.6 87 0.8 SE 7 9 4 5 1027.7 1027.9 0.0
28/04:30am 5.2 2.5 2.7 84 1.0 S 6 7 3 4 1027.6 - 0.0
28/04:00am 5.6 4.1 2.9 83 1.1 CALM 0 2 0 1 1027.6 1027.8 0.0
28/03:30am 5.4 2.6 2.9 84 1.0 E 7 11 4 6 1027.7 - 0.0
28/03:00am 5.4 2.2 3.3 86 0.9 E 9 11 5 6 1027.6 1027.8 0.0
28/02:30am 5.1 2.3 3.0 86 0.9 SE 7 9 4 5 1027.8 - 0.0
28/02:00am 6.1 3.4 3.9 86 0.9 SE 7 9 4 5 1027.8 1028.0 0.0
28/01:30am 6.3 4.9 3.8 84 1.1 CALM 0 0 0 0 1027.8 - 0.0
28/01:00am 6.3 4.6 3.8 84 1.1 ESE 2 7 1 4 1027.7 1027.9 0.0
28/12:30am 6.9 5.8 4.9 87 0.9 CALM 0 0 0 0 1027.7 - 0.0
28/12:00am 6.9 4.5 5.4 90 0.7 SE 7 9 4 5 1027.8 1028.0 0.0
 
Date/Time
EST
Temp
°C
App
Temp
°C
Dew
Point
Rel
Hum
%
Delta-T
°C
Wind Press
QNH
hPa
Press
MSL
hPa
Rain
since 9 am
mm
Dir
 
Spd
km/h
Gust
km/h
Spd
kts
Gust
kts
27/11:30pm 5.6 4.2 3.8 88 0.8 CALM 0 0 0 0 1027.5 - 0.0
27/11:00pm 5.7 4.5 4.7 93 0.4 CALM 0 0 0 0 1027.5 1027.7 0.0
27/10:30pm 5.9 4.7 4.7 92 0.5 CALM 0 0 0 0 1027.5 - 0.0

Other Formats:

Comma delimited format used in spreadsheet applications
http://www.bom.gov.au/fwo/IDN60801/IDN60801.95706.axf

JavaScript Object Notation format (JSON) in row-major order
http://www.bom.gov.au/fwo/IDN60801/IDN60801.95706.json